createdAt,value
2023-04-20T00:00:20.661Z,18.4
2023-04-20T00:10:21.117Z,18.4
2023-04-20T00:20:20.870Z,18.3
2023-04-20T00:30:20.578Z,18.3
2023-04-20T00:40:20.149Z,18.4
2023-04-20T00:50:20.090Z,18.4
2023-04-20T01:00:20.868Z,18.4
2023-04-20T01:10:20.548Z,18.3
2023-04-20T01:20:20.520Z,18.3
2023-04-20T01:30:20.543Z,18.4
2023-04-20T01:40:21.251Z,18.3
2023-04-20T01:50:21.163Z,18.3
2023-04-20T02:00:21.885Z,18.8
2023-04-20T02:10:22.819Z,18.3
2023-04-20T02:20:22.497Z,18.3
2023-04-20T02:30:23.374Z,18.3
2023-04-20T02:40:23.408Z,18.3
2023-04-20T02:50:23.594Z,18.3
2023-04-20T03:10:09.859Z,18.4
2023-04-20T03:20:09.673Z,18.3
2023-04-20T03:30:10.281Z,18.6
2023-04-20T03:40:10.152Z,18.2
2023-04-20T03:50:10.800Z,18.4
2023-04-20T04:00:12.572Z,18.4
2023-04-20T04:10:14.379Z,18.3
2023-04-20T04:20:16.036Z,18.3
2023-04-20T04:30:17.525Z,18.4
2023-04-20T04:40:19.590Z,18.2
2023-04-20T04:50:21.134Z,18.3
2023-04-20T05:00:22.211Z,18.6
2023-04-20T05:10:22.744Z,18.1
2023-04-20T05:20:23.056Z,18.3
2023-04-20T05:30:22.758Z,18.3
2023-04-20T05:40:23.938Z,18.6
2023-04-20T05:50:24.822Z,18.4
2023-04-20T06:00:26.246Z,18.4
2023-04-20T06:10:25.547Z,18.2
2023-04-20T06:20:25.556Z,18.3
2023-04-20T06:30:26.172Z,18.5
2023-04-20T06:40:27.158Z,18.3
2023-04-20T06:50:27.421Z,18.4
2023-04-20T07:00:28.315Z,18.8
2023-04-20T07:10:29.286Z,18.3
2023-04-20T07:20:29.688Z,18.3
2023-04-20T07:30:32.363Z,18.8
2023-04-20T07:40:42.599Z,18.4
2023-04-20T07:50:57.658Z,18.8
2023-04-20T08:01:12.636Z,18.6
2023-04-20T08:11:29.335Z,19.1
2023-04-20T08:21:45.325Z,19.1
2023-04-20T08:31:53.922Z,19.7
2023-04-20T08:42:05.682Z,19.9
2023-04-20T08:52:11.966Z,19.3
2023-04-20T09:10:08.167Z,19.3
2023-04-20T09:20:10.545Z,19.6
2023-04-20T09:30:18.109Z,19.4
2023-04-20T09:40:31.405Z,19.6
2023-04-20T09:50:50.916Z,19.6
2023-04-20T10:01:04.187Z,19.6
2023-04-20T10:11:22.763Z,19.4
2023-04-20T10:21:40.050Z,19.9
2023-04-20T10:31:56.702Z,19.7
2023-04-20T10:42:14.624Z,19.7
2023-04-20T10:52:29.999Z,20.1
2023-04-20T11:02:42.456Z,20.3
2023-04-20T11:12:53.839Z,20.8
2023-04-20T11:23:03.741Z,20.3
2023-04-20T11:33:15.801Z,20.4
2023-04-20T11:43:27.273Z,20.2
2023-04-20T11:53:39.293Z,19
2023-04-20T12:03:49.048Z,20.8
2023-04-20T12:13:53.178Z,20.3
2023-04-20T12:23:53.715Z,20.3
2023-04-20T12:33:53.126Z,20.1
2023-04-20T12:43:53.190Z,20.3
2023-04-20T12:53:55.571Z,20.4
2023-04-20T13:04:03.666Z,19.9
2023-04-20T13:14:11.183Z,20.9
2023-04-20T13:24:16.229Z,20.3
2023-04-20T13:34:21.603Z,20.2
2023-04-20T13:44:24.649Z,20.3
2023-04-20T13:54:27.933Z,20
2023-04-20T14:04:31.603Z,20.5
2023-04-20T14:14:34.335Z,20.2
2023-04-20T14:24:36.615Z,20.4
2023-04-20T14:34:38.652Z,20.2
2023-04-20T14:44:40.041Z,20.1
2023-04-20T14:54:41.370Z,20.1
2023-04-20T15:10:10.895Z,20.2
2023-04-20T15:20:11.864Z,19.8
2023-04-20T15:30:12.956Z,19.9
2023-04-20T15:40:12.879Z,19.7
2023-04-20T15:50:13.874Z,20
2023-04-20T16:00:15.563Z,19.7
2023-04-20T16:10:16.834Z,19.7
2023-04-20T16:20:19.889Z,19.7
2023-04-20T16:30:21.645Z,19.6
2023-04-20T16:40:24.201Z,19.5
2023-04-20T16:50:26.116Z,19.5
2023-04-20T17:00:27.310Z,19.8
2023-04-20T17:10:27.831Z,19.4
2023-04-20T17:20:28.035Z,19.5
2023-04-20T17:30:28.570Z,19.3
2023-04-20T17:40:29.093Z,19.3
2023-04-20T17:50:29.546Z,19.3
2023-04-20T18:00:29.919Z,19.2
2023-04-20T18:10:30.767Z,19.2
2023-04-20T18:20:32.464Z,19.2
2023-04-20T18:30:31.336Z,19.4
2023-04-20T18:40:31.943Z,19.2
2023-04-20T18:50:33.185Z,19.1
2023-04-20T19:00:33.584Z,19.5
2023-04-20T19:10:34.025Z,19
2023-04-20T19:20:34.049Z,18.9
2023-04-20T19:30:34.026Z,19
2023-04-20T19:40:33.469Z,19
2023-04-20T19:50:33.495Z,19.5
2023-04-20T20:00:34.277Z,19.3
2023-04-20T20:10:34.842Z,18.9
2023-04-20T20:20:35.021Z,19.3
2023-04-20T20:30:34.721Z,18.9
2023-04-20T20:40:34.165Z,18.9
2023-04-20T20:50:34.255Z,18.8
2023-04-20T21:10:07.905Z,19.2
2023-04-20T21:20:07.713Z,18.9
2023-04-20T21:30:07.854Z,18.8
2023-04-20T21:40:08.984Z,18.8
2023-04-20T21:50:09.012Z,18.9
2023-04-20T22:00:07.683Z,18.8
2023-04-20T22:10:09.835Z,18.8
2023-04-20T22:20:11.501Z,18.8
2023-04-20T22:30:12.629Z,18.8
2023-04-20T22:40:14.903Z,18.8
2023-04-20T22:50:16.744Z,18.6
2023-04-20T23:00:17.869Z,18.6
2023-04-20T23:10:18.458Z,18.9
2023-04-20T23:20:18.483Z,18.6
2023-04-20T23:30:18.161Z,18.6
2023-04-20T23:40:17.462Z,18.6
2023-04-20T23:50:17.968Z,18.6
